createdAt,value
2022-12-05T00:06:51.101Z,6.8
2022-12-05T00:20:51.205Z,6.6
2022-12-05T00:34:51.207Z,6.6
2022-12-05T00:48:51.237Z,6.5
2022-12-05T01:02:51.290Z,7.0
2022-12-05T01:16:51.308Z,7.1
2022-12-05T01:30:51.203Z,7.0
2022-12-05T01:44:51.267Z,7.3
2022-12-05T01:58:51.292Z,7.4
2022-12-05T02:12:51.324Z,7.5
2022-12-05T02:26:51.289Z,7.4
2022-12-05T02:40:51.294Z,7.7
2022-12-05T02:54:51.280Z,7.7
2022-12-05T03:08:51.324Z,7.7
2022-12-05T03:22:51.334Z,7.7
2022-12-05T03:36:51.361Z,8.1
2022-12-05T03:50:51.328Z,8.2
2022-12-05T04:04:51.419Z,8.4
2022-12-05T04:18:51.531Z,8.5
2022-12-05T04:32:51.788Z,8.6
2022-12-05T04:46:51.815Z,8.2
2022-12-05T05:00:51.768Z,8.1
2022-12-05T05:14:51.791Z,8.2
2022-12-05T05:28:51.800Z,8.2
2022-12-05T05:42:51.861Z,8.2
2022-12-05T05:56:51.853Z,8.2
2022-12-05T06:10:51.930Z,8.2
2022-12-05T06:24:51.902Z,8.1
2022-12-05T06:38:51.916Z,8.2
2022-12-05T06:53:52.216Z,8.2
2022-12-05T07:08:52.170Z,8.1
2022-12-05T07:23:52.266Z,8.2
2022-12-05T07:40:52.215Z,8.5
2022-12-05T07:55:52.293Z,8.8
2022-12-05T08:10:52.341Z,9.1
2022-12-05T08:25:52.367Z,9.3
2022-12-05T08:40:52.432Z,9.3
2022-12-05T08:55:52.475Z,9.4
2022-12-05T09:10:52.456Z,9.6
2022-12-05T09:25:52.526Z,10.2
2022-12-05T09:40:56.369Z,10.7
2022-12-05T09:55:52.566Z,10.3
2022-12-05T10:10:52.653Z,10.1
2022-12-05T10:25:52.637Z,10.6
2022-12-05T10:40:52.738Z,10.3
2022-12-05T10:45:54.135Z,10.2
2022-12-05T11:00:54.307Z,10.4
2022-12-05T11:15:55.600Z,10.7
2022-12-05T11:30:54.372Z,10.9
2022-12-05T11:45:54.292Z,10.5
2022-12-05T12:01:54.354Z,10.1
2022-12-05T12:16:54.367Z,10.1
2022-12-05T12:31:54.614Z,10.9
2022-12-05T12:46:54.647Z,11.0
2022-12-05T13:01:54.756Z,10.6
2022-12-05T13:16:54.990Z,10.9
2022-12-05T13:31:54.988Z,10.6
2022-12-05T13:46:55.184Z,10.1
2022-12-05T14:01:56.361Z,10.1
2022-12-05T14:16:55.111Z,10.1
2022-12-05T14:31:58.384Z,9.9
2022-12-05T14:47:55.081Z,9.9
2022-12-05T15:02:55.140Z,9.6
2022-12-05T15:17:55.150Z,9.3
2022-12-05T15:32:59.353Z,9.3
2022-12-05T15:47:55.306Z,9.4
2022-12-05T16:01:55.358Z,9.3
2022-12-05T16:15:55.317Z,9.3
2022-12-05T16:29:55.407Z,9.2
2022-12-05T16:43:55.346Z,9.2
2022-12-05T16:57:55.338Z,9.1
2022-12-05T17:11:55.359Z,8.9
2022-12-05T17:25:55.379Z,8.5
2022-12-05T17:39:55.370Z,7.9
2022-12-05T17:53:55.405Z,7.1
2022-12-05T18:07:55.550Z,6.9
2022-12-05T18:21:55.493Z,6.6
2022-12-05T18:35:55.452Z,6.4
2022-12-05T18:49:55.454Z,6.3
2022-12-05T19:03:55.575Z,6.0
2022-12-05T19:17:55.551Z,5.8
2022-12-05T19:31:55.636Z,5.6
2022-12-05T19:45:55.553Z,5.2
2022-12-05T19:59:55.715Z,4.8
2022-12-05T20:13:55.547Z,4.3
2022-12-05T20:27:55.577Z,4.2
2022-12-05T20:41:55.689Z,4.1
2022-12-05T20:55:55.621Z,3.9
2022-12-05T21:09:55.717Z,3.9
2022-12-05T21:23:55.679Z,4.1
2022-12-05T21:37:56.002Z,3.7
2022-12-05T21:51:55.761Z,3.9
2022-12-05T22:05:55.753Z,3.6
2022-12-05T22:19:55.919Z,3.7
2022-12-05T22:33:56.239Z,3.3
2022-12-05T22:47:56.283Z,3.8
2022-12-05T23:01:56.300Z,3.0
2022-12-05T23:15:56.357Z,2.8
2022-12-05T23:29:56.674Z,2.8
2022-12-05T23:43:56.497Z,2.9
2022-12-05T23:57:56.972Z,3.0
